sensor_id;sensor_type;location;lat;lon;timestamp;P1;durP1;ratioP1;P2;durP2;ratioP2
42200;SDS011;27869;51.442;7.540;2023-07-13T00:01:44;8.25;;;1.52;;
42200;SDS011;27869;51.442;7.540;2023-07-13T00:04:14;9.77;;;1.48;;
42200;SDS011;27869;51.442;7.540;2023-07-13T00:06:42;7.20;;;1.20;;
42200;SDS011;27869;51.442;7.540;2023-07-13T00:09:11;9.32;;;1.85;;
42200;SDS011;27869;51.442;7.540;2023-07-13T00:11:38;6.80;;;1.85;;
42200;SDS011;27869;51.442;7.540;2023-07-13T00:14:06;8.25;;;1.10;;
42200;SDS011;27869;51.442;7.540;2023-07-13T00:16:34;9.18;;;1.77;;
42200;SDS011;27869;51.442;7.540;2023-07-13T00:19:02;9.45;;;1.25;;
42200;SDS011;27869;51.442;7.540;2023-07-13T00:21:29;6.55;;;1.50;;
42200;SDS011;27869;51.442;7.540;2023-07-13T00:23:56;5.65;;;1.15;;
42200;SDS011;27869;51.442;7.540;2023-07-13T00:26:25;9.20;;;1.45;;
42200;SDS011;27869;51.442;7.540;2023-07-13T00:28:52;9.43;;;1.77;;
42200;SDS011;27869;51.442;7.540;2023-07-13T00:31:19;6.13;;;2.83;;
42200;SDS011;27869;51.442;7.540;2023-07-13T00:33:46;6.88;;;1.75;;
42200;SDS011;27869;51.442;7.540;2023-07-13T00:36:13;6.60;;;1.55;;
42200;SDS011;27869;51.442;7.540;2023-07-13T00:38:39;4.85;;;1.20;;
42200;SDS011;27869;51.442;7.540;2023-07-13T00:41:07;11.55;;;1.70;;
42200;SDS011;27869;51.442;7.540;2023-07-13T00:43:35;7.55;;;1.40;;
42200;SDS011;27869;51.442;7.540;2023-07-13T00:46:15;10.27;;;1.60;;
42200;SDS011;27869;51.442;7.540;2023-07-13T00:48:46;8.35;;;1.55;;
42200;SDS011;27869;51.442;7.540;2023-07-13T00:53:42;9.52;;;1.55;;
42200;SDS011;27869;51.442;7.540;2023-07-13T00:56:12;9.43;;;1.58;;
42200;SDS011;27869;51.442;7.540;2023-07-13T00:58:41;7.40;;;1.70;;
42200;SDS011;27869;51.442;7.540;2023-07-13T01:01:08;9.07;;;1.63;;
42200;SDS011;27869;51.442;7.540;2023-07-13T01:03:34;6.32;;;1.30;;
42200;SDS011;27869;51.442;7.540;2023-07-13T01:06:03;6.75;;;1.50;;
42200;SDS011;27869;51.442;7.540;2023-07-13T01:08:30;8.50;;;1.50;;
42200;SDS011;27869;51.442;7.540;2023-07-13T01:10:57;8.32;;;1.70;;
42200;SDS011;27869;51.442;7.540;2023-07-13T01:13:24;10.57;;;1.50;;
42200;SDS011;27869;51.442;7.540;2023-07-13T01:15:55;9.07;;;1.48;;
42200;SDS011;27869;51.442;7.540;2023-07-13T01:18:25;6.60;;;1.33;;
42200;SDS011;27869;51.442;7.540;2023-07-13T01:20:55;5.90;;;1.20;;
42200;SDS011;27869;51.442;7.540;2023-07-13T01:23:22;9.50;;;1.40;;
42200;SDS011;27869;51.442;7.540;2023-07-13T01:25:50;11.48;;;1.50;;
42200;SDS011;27869;51.442;7.540;2023-07-13T01:28:18;8.90;;;1.35;;
42200;SDS011;27869;51.442;7.540;2023-07-13T01:30:46;7.65;;;1.20;;
42200;SDS011;27869;51.442;7.540;2023-07-13T01:33:14;6.28;;;1.33;;
42200;SDS011;27869;51.442;7.540;2023-07-13T01:35:42;7.82;;;1.80;;
42200;SDS011;27869;51.442;7.540;2023-07-13T01:38:11;7.28;;;1.58;;
42200;SDS011;27869;51.442;7.540;2023-07-13T01:40:40;8.27;;;1.92;;
42200;SDS011;27869;51.442;7.540;2023-07-13T01:43:07;12.13;;;1.42;;
42200;SDS011;27869;51.442;7.540;2023-07-13T01:45:34;11.45;;;1.50;;
42200;SDS011;27869;51.442;7.540;2023-07-13T01:48:01;5.18;;;1.33;;
42200;SDS011;27869;51.442;7.540;2023-07-13T01:50:27;7.22;;;1.50;;
42200;SDS011;27869;51.442;7.540;2023-07-13T01:52:54;8.73;;;1.23;;
42200;SDS011;27869;51.442;7.540;2023-07-13T01:55:22;7.25;;;1.30;;
42200;SDS011;27869;51.442;7.540;2023-07-13T01:57:49;8.27;;;1.30;;
42200;SDS011;27869;51.442;7.540;2023-07-13T02:00:16;9.95;;;1.42;;
42200;SDS011;27869;51.442;7.540;2023-07-13T02:02:44;5.75;;;1.30;;
42200;SDS011;27869;51.442;7.540;2023-07-13T02:05:11;11.45;;;1.95;;
42200;SDS011;27869;51.442;7.540;2023-07-13T02:07:37;7.97;;;1.48;;
42200;SDS011;27869;51.442;7.540;2023-07-13T02:10:05;7.30;;;1.33;;
42200;SDS011;27869;51.442;7.540;2023-07-13T02:12:34;6.03;;;1.48;;
42200;SDS011;27869;51.442;7.540;2023-07-13T02:17:28;5.07;;;1.13;;
42200;SDS011;27869;51.442;7.540;2023-07-13T02:19:55;6.18;;;1.33;;
42200;SDS011;27869;51.442;7.540;2023-07-13T02:22:22;7.13;;;1.60;;
42200;SDS011;27869;51.442;7.540;2023-07-13T02:24:49;5.85;;;1.35;;
42200;SDS011;27869;51.442;7.540;2023-07-13T02:27:16;6.35;;;1.70;;
42200;SDS011;27869;51.442;7.540;2023-07-13T02:29:44;6.18;;;1.60;;
42200;SDS011;27869;51.442;7.540;2023-07-13T02:32:11;7.20;;;1.45;;
42200;SDS011;27869;51.442;7.540;2023-07-13T02:34:40;9.15;;;1.50;;
42200;SDS011;27869;51.442;7.540;2023-07-13T02:37:07;9.07;;;1.52;;
42200;SDS011;27869;51.442;7.540;2023-07-13T02:39:34;12.75;;;1.80;;
42200;SDS011;27869;51.442;7.540;2023-07-13T02:42:02;10.48;;;1.70;;
42200;SDS011;27869;51.442;7.540;2023-07-13T02:44:29;8.38;;;1.40;;
42200;SDS011;27869;51.442;7.540;2023-07-13T02:46:57;8.52;;;1.65;;
42200;SDS011;27869;51.442;7.540;2023-07-13T02:49:24;7.85;;;1.50;;
42200;SDS011;27869;51.442;7.540;2023-07-13T02:51:51;7.55;;;1.55;;
42200;SDS011;27869;51.442;7.540;2023-07-13T02:54:18;8.23;;;1.48;;
42200;SDS011;27869;51.442;7.540;2023-07-13T02:56:45;7.95;;;1.35;;
42200;SDS011;27869;51.442;7.540;2023-07-13T02:59:12;16.17;;;1.60;;
42200;SDS011;27869;51.442;7.540;2023-07-13T03:01:38;8.40;;;1.60;;
42200;SDS011;27869;51.442;7.540;2023-07-13T03:04:07;12.90;;;1.67;;
42200;SDS011;27869;51.442;7.540;2023-07-13T03:06:34;8.73;;;1.40;;
42200;SDS011;27869;51.442;7.540;2023-07-13T03:09:01;9.07;;;1.50;;
42200;SDS011;27869;51.442;7.540;2023-07-13T03:11:29;8.25;;;1.45;;
42200;SDS011;27869;51.442;7.540;2023-07-13T03:13:56;6.57;;;1.48;;
42200;SDS011;27869;51.442;7.540;2023-07-13T03:16:23;7.47;;;1.45;;
42200;SDS011;27869;51.442;7.540;2023-07-13T03:18:50;5.45;;;1.50;;
42200;SDS011;27869;51.442;7.540;2023-07-13T03:21:18;5.50;;;1.42;;
42200;SDS011;27869;51.442;7.540;2023-07-13T03:23:45;8.10;;;1.35;;
42200;SDS011;27869;51.442;7.540;2023-07-13T03:26:13;8.73;;;1.50;;
42200;SDS011;27869;51.442;7.540;2023-07-13T03:28:43;7.45;;;1.40;;
42200;SDS011;27869;51.442;7.540;2023-07-13T03:31:11;11.18;;;1.50;;
42200;SDS011;27869;51.442;7.540;2023-07-13T03:33:40;12.93;;;1.50;;
42200;SDS011;27869;51.442;7.540;2023-07-13T03:36:09;8.18;;;1.50;;
42200;SDS011;27869;51.442;7.540;2023-07-13T03:38:40;9.77;;;1.63;;
42200;SDS011;27869;51.442;7.540;2023-07-13T03:41:06;12.60;;;1.55;;
42200;SDS011;27869;51.442;7.540;2023-07-13T03:43:33;9.85;;;1.92;;
42200;SDS011;27869;51.442;7.540;2023-07-13T03:46:00;7.30;;;1.30;;
42200;SDS011;27869;51.442;7.540;2023-07-13T03:48:27;8.27;;;1.73;;
42200;SDS011;27869;51.442;7.540;2023-07-13T03:50:54;9.50;;;1.58;;
42200;SDS011;27869;51.442;7.540;2023-07-13T03:53:21;11.65;;;1.88;;
42200;SDS011;27869;51.442;7.540;2023-07-13T03:55:49;11.68;;;1.52;;
42200;SDS011;27869;51.442;7.540;2023-07-13T03:58:24;6.38;;;1.35;;
42200;SDS011;27869;51.442;7.540;2023-07-13T04:00:56;10.68;;;1.60;;
42200;SDS011;27869;51.442;7.540;2023-07-13T04:03:23;8.63;;;1.60;;
42200;SDS011;27869;51.442;7.540;2023-07-13T04:05:53;8.88;;;1.75;;
42200;SDS011;27869;51.442;7.540;2023-07-13T04:08:24;8.88;;;1.58;;
42200;SDS011;27869;51.442;7.540;2023-07-13T04:10:53;7.82;;;1.50;;
42200;SDS011;27869;51.442;7.540;2023-07-13T04:13:20;7.25;;;1.40;;
42200;SDS011;27869;51.442;7.540;2023-07-13T04:15:47;7.97;;;1.58;;
42200;SDS011;27869;51.442;7.540;2023-07-13T04:18:14;7.70;;;1.90;;
42200;SDS011;27869;51.442;7.540;2023-07-13T04:20:41;9.82;;;1.30;;
42200;SDS011;27869;51.442;7.540;2023-07-13T04:23:08;8.50;;;1.30;;
42200;SDS011;27869;51.442;7.540;2023-07-13T04:25:34;10.30;;;1.77;;
42200;SDS011;27869;51.442;7.540;2023-07-13T04:28:03;8.20;;;1.50;;
42200;SDS011;27869;51.442;7.540;2023-07-13T04:30:31;10.18;;;1.70;;
42200;SDS011;27869;51.442;7.540;2023-07-13T04:32:57;7.90;;;1.50;;
42200;SDS011;27869;51.442;7.540;2023-07-13T04:35:24;9.05;;;1.60;;
42200;SDS011;27869;51.442;7.540;2023-07-13T04:37:51;10.95;;;1.50;;
42200;SDS011;27869;51.442;7.540;2023-07-13T04:40:18;9.73;;;1.52;;
42200;SDS011;27869;51.442;7.540;2023-07-13T04:42:46;8.40;;;1.63;;
42200;SDS011;27869;51.442;7.540;2023-07-13T04:45:15;7.82;;;1.30;;
42200;SDS011;27869;51.442;7.540;2023-07-13T04:47:42;6.57;;;1.42;;
42200;SDS011;27869;51.442;7.540;2023-07-13T04:50:09;7.13;;;1.25;;
42200;SDS011;27869;51.442;7.540;2023-07-13T04:52:36;7.18;;;1.30;;
42200;SDS011;27869;51.442;7.540;2023-07-13T04:55:04;6.05;;;1.10;;
42200;SDS011;27869;51.442;7.540;2023-07-13T04:57:31;6.63;;;1.52;;
42200;SDS011;27869;51.442;7.540;2023-07-13T04:59:58;10.32;;;1.75;;
42200;SDS011;27869;51.442;7.540;2023-07-13T05:02:27;10.07;;;1.60;;
42200;SDS011;27869;51.442;7.540;2023-07-13T05:04:56;8.73;;;1.50;;
42200;SDS011;27869;51.442;7.540;2023-07-13T05:07:23;9.02;;;1.50;;
42200;SDS011;27869;51.442;7.540;2023-07-13T05:09:50;5.80;;;1.35;;
42200;SDS011;27869;51.442;7.540;2023-07-13T05:12:18;9.57;;;1.45;;
42200;SDS011;27869;51.442;7.540;2023-07-13T05:14:45;9.15;;;1.50;;
42200;SDS011;27869;51.442;7.540;2023-07-13T05:17:13;9.52;;;1.38;;
42200;SDS011;27869;51.442;7.540;2023-07-13T05:19:42;11.02;;;1.65;;
42200;SDS011;27869;51.442;7.540;2023-07-13T05:22:08;10.15;;;1.50;;
42200;SDS011;27869;51.442;7.540;2023-07-13T05:24:36;6.75;;;1.33;;
42200;SDS011;27869;51.442;7.540;2023-07-13T05:27:03;5.35;;;1.20;;
42200;SDS011;27869;51.442;7.540;2023-07-13T05:29:30;8.23;;;1.45;;
42200;SDS011;27869;51.442;7.540;2023-07-13T05:31:57;9.52;;;1.70;;
42200;SDS011;27869;51.442;7.540;2023-07-13T05:34:24;11.70;;;1.65;;
42200;SDS011;27869;51.442;7.540;2023-07-13T05:36:53;9.93;;;1.58;;
42200;SDS011;27869;51.442;7.540;2023-07-13T05:39:19;4.57;;;1.27;;
42200;SDS011;27869;51.442;7.540;2023-07-13T05:41:46;7.22;;;1.60;;
42200;SDS011;27869;51.442;7.540;2023-07-13T05:44:13;8.43;;;1.58;;
42200;SDS011;27869;51.442;7.540;2023-07-13T05:46:40;9.07;;;1.55;;
42200;SDS011;27869;51.442;7.540;2023-07-13T05:49:07;7.47;;;1.60;;
42200;SDS011;27869;51.442;7.540;2023-07-13T05:51:34;9.27;;;1.90;;
42200;SDS011;27869;51.442;7.540;2023-07-13T05:54:02;9.38;;;1.70;;
42200;SDS011;27869;51.442;7.540;2023-07-13T05:56:29;11.32;;;1.80;;
42200;SDS011;27869;51.442;7.540;2023-07-13T05:58:56;13.90;;;2.05;;
42200;SDS011;27869;51.442;7.540;2023-07-13T06:01:23;11.43;;;2.00;;
42200;SDS011;27869;51.442;7.540;2023-07-13T06:03:50;9.45;;;1.92;;
42200;SDS011;27869;51.442;7.540;2023-07-13T06:06:16;14.15;;;2.50;;
42200;SDS011;27869;51.442;7.540;2023-07-13T06:08:43;12.30;;;2.05;;
42200;SDS011;27869;51.442;7.540;2023-07-13T06:11:13;9.48;;;1.83;;
42200;SDS011;27869;51.442;7.540;2023-07-13T06:13:41;12.18;;;1.70;;
42200;SDS011;27869;51.442;7.540;2023-07-13T06:16:08;10.65;;;1.85;;
42200;SDS011;27869;51.442;7.540;2023-07-13T06:18:36;10.75;;;2.05;;
42200;SDS011;27869;51.442;7.540;2023-07-13T06:21:07;8.63;;;1.60;;
42200;SDS011;27869;51.442;7.540;2023-07-13T06:23:34;10.80;;;1.83;;
42200;SDS011;27869;51.442;7.540;2023-07-13T06:26:01;11.18;;;2.30;;
42200;SDS011;27869;51.442;7.540;2023-07-13T06:28:30;11.45;;;2.25;;
42200;SDS011;27869;51.442;7.540;2023-07-13T06:30:57;10.85;;;2.25;;
42200;SDS011;27869;51.442;7.540;2023-07-13T06:33:25;9.82;;;2.17;;
42200;SDS011;27869;51.442;7.540;2023-07-13T06:35:52;10.88;;;1.98;;
42200;SDS011;27869;51.442;7.540;2023-07-13T06:38:19;14.75;;;2.50;;
42200;SDS011;27869;51.442;7.540;2023-07-13T06:40:47;14.27;;;2.30;;
42200;SDS011;27869;51.442;7.540;2023-07-13T06:43:14;11.02;;;2.25;;
42200;SDS011;27869;51.442;7.540;2023-07-13T06:45:47;8.70;;;2.22;;
42200;SDS011;27869;51.442;7.540;2023-07-13T06:48:15;12.93;;;2.30;;
42200;SDS011;27869;51.442;7.540;2023-07-13T06:50:42;12.13;;;2.42;;
42200;SDS011;27869;51.442;7.540;2023-07-13T06:53:10;12.32;;;2.22;;
42200;SDS011;27869;51.442;7.540;2023-07-13T06:55:38;10.30;;;2.08;;
42200;SDS011;27869;51.442;7.540;2023-07-13T06:58:06;13.60;;;2.15;;
42200;SDS011;27869;51.442;7.540;2023-07-13T07:00:33;12.40;;;2.53;;
42200;SDS011;27869;51.442;7.540;2023-07-13T07:03:06;11.93;;;2.20;;
42200;SDS011;27869;51.442;7.540;2023-07-13T07:05:33;10.27;;;2.08;;
42200;SDS011;27869;51.442;7.540;2023-07-13T07:08:00;15.40;;;2.50;;
42200;SDS011;27869;51.442;7.540;2023-07-13T07:10:29;11.13;;;2.10;;
42200;SDS011;27869;51.442;7.540;2023-07-13T07:12:57;10.40;;;2.50;;
42200;SDS011;27869;51.442;7.540;2023-07-13T07:15:25;11.75;;;2.22;;
42200;SDS011;27869;51.442;7.540;2023-07-13T07:17:53;11.38;;;2.28;;
42200;SDS011;27869;51.442;7.540;2023-07-13T07:20:21;11.40;;;2.25;;
42200;SDS011;27869;51.442;7.540;2023-07-13T07:22:48;10.52;;;1.80;;
42200;SDS011;27869;51.442;7.540;2023-07-13T07:25:17;12.40;;;2.00;;
42200;SDS011;27869;51.442;7.540;2023-07-13T07:27:44;12.98;;;2.45;;
42200;SDS011;27869;51.442;7.540;2023-07-13T07:30:12;10.25;;;1.90;;
42200;SDS011;27869;51.442;7.540;2023-07-13T07:32:42;10.70;;;2.25;;
42200;SDS011;27869;51.442;7.540;2023-07-13T07:35:09;9.77;;;1.80;;
42200;SDS011;27869;51.442;7.540;2023-07-13T07:37:43;11.98;;;2.20;;
42200;SDS011;27869;51.442;7.540;2023-07-13T07:40:12;11.07;;;2.13;;
42200;SDS011;27869;51.442;7.540;2023-07-13T07:42:41;13.13;;;1.90;;
42200;SDS011;27869;51.442;7.540;2023-07-13T07:45:10;11.10;;;2.42;;
42200;SDS011;27869;51.442;7.540;2023-07-13T07:47:38;11.52;;;1.95;;
42200;SDS011;27869;51.442;7.540;2023-07-13T07:50:11;10.82;;;1.92;;
42200;SDS011;27869;51.442;7.540;2023-07-13T07:52:38;9.80;;;2.20;;
42200;SDS011;27869;51.442;7.540;2023-07-13T07:55:07;9.93;;;1.88;;
42200;SDS011;27869;51.442;7.540;2023-07-13T07:57:40;9.95;;;1.98;;
42200;SDS011;27869;51.442;7.540;2023-07-13T08:00:09;12.02;;;1.92;;
42200;SDS011;27869;51.442;7.540;2023-07-13T08:02:37;11.80;;;1.80;;
42200;SDS011;27869;51.442;7.540;2023-07-13T08:05:07;13.30;;;2.20;;
42200;SDS011;27869;51.442;7.540;2023-07-13T08:07:38;10.85;;;2.00;;
42200;SDS011;27869;51.442;7.540;2023-07-13T08:10:06;12.27;;;2.15;;
42200;SDS011;27869;51.442;7.540;2023-07-13T08:12:35;10.45;;;1.90;;
42200;SDS011;27869;51.442;7.540;2023-07-13T08:15:11;13.35;;;1.98;;
42200;SDS011;27869;51.442;7.540;2023-07-13T08:17:42;13.27;;;2.05;;
42200;SDS011;27869;51.442;7.540;2023-07-13T08:20:09;9.93;;;2.20;;
42200;SDS011;27869;51.442;7.540;2023-07-13T08:22:36;9.20;;;2.05;;
42200;SDS011;27869;51.442;7.540;2023-07-13T08:25:03;9.48;;;1.90;;
42200;SDS011;27869;51.442;7.540;2023-07-13T08:27:32;10.00;;;1.80;;
42200;SDS011;27869;51.442;7.540;2023-07-13T08:30:01;10.02;;;1.73;;
42200;SDS011;27869;51.442;7.540;2023-07-13T08:32:33;10.52;;;2.10;;
42200;SDS011;27869;51.442;7.540;2023-07-13T08:35:04;12.05;;;1.98;;
42200;SDS011;27869;51.442;7.540;2023-07-13T08:37:32;11.07;;;2.05;;
42200;SDS011;27869;51.442;7.540;2023-07-13T08:39:59;9.40;;;1.60;;
42200;SDS011;27869;51.442;7.540;2023-07-13T08:42:33;10.43;;;2.03;;
42200;SDS011;27869;51.442;7.540;2023-07-13T08:45:07;10.88;;;1.98;;
42200;SDS011;27869;51.442;7.540;2023-07-13T08:47:40;11.07;;;2.42;;
42200;SDS011;27869;51.442;7.540;2023-07-13T08:50:15;9.52;;;2.28;;
42200;SDS011;27869;51.442;7.540;2023-07-13T08:52:44;9.88;;;2.35;;
42200;SDS011;27869;51.442;7.540;2023-07-13T08:55:12;12.30;;;2.10;;
42200;SDS011;27869;51.442;7.540;2023-07-13T08:57:44;10.00;;;2.00;;
42200;SDS011;27869;51.442;7.540;2023-07-13T09:00:16;10.80;;;2.15;;
42200;SDS011;27869;51.442;7.540;2023-07-13T09:02:45;12.57;;;1.98;;
42200;SDS011;27869;51.442;7.540;2023-07-13T09:05:15;10.45;;;2.00;;
42200;SDS011;27869;51.442;7.540;2023-07-13T09:07:54;12.30;;;2.05;;
42200;SDS011;27869;51.442;7.540;2023-07-13T09:10:31;12.50;;;2.22;;
42200;SDS011;27869;51.442;7.540;2023-07-13T09:13:10;8.65;;;2.10;;
42200;SDS011;27869;51.442;7.540;2023-07-13T09:15:49;13.30;;;2.60;;
42200;SDS011;27869;51.442;7.540;2023-07-13T09:18:18;11.85;;;2.08;;
42200;SDS011;27869;51.442;7.540;2023-07-13T09:20:51;11.30;;;2.25;;
42200;SDS011;27869;51.442;7.540;2023-07-13T09:23:21;11.07;;;2.58;;
42200;SDS011;27869;51.442;7.540;2023-07-13T09:25:51;7.45;;;2.03;;
42200;SDS011;27869;51.442;7.540;2023-07-13T09:28:23;11.55;;;1.95;;
42200;SDS011;27869;51.442;7.540;2023-07-13T09:30:54;8.27;;;1.88;;
42200;SDS011;27869;51.442;7.540;2023-07-13T09:33:26;9.25;;;2.25;;
42200;SDS011;27869;51.442;7.540;2023-07-13T09:35:54;10.90;;;2.15;;
42200;SDS011;27869;51.442;7.540;2023-07-13T09:38:24;9.05;;;2.00;;
42200;SDS011;27869;51.442;7.540;2023-07-13T09:40:58;14.20;;;2.00;;
42200;SDS011;27869;51.442;7.540;2023-07-13T09:43:35;10.35;;;2.10;;
42200;SDS011;27869;51.442;7.540;2023-07-13T09:46:02;8.57;;;2.00;;
42200;SDS011;27869;51.442;7.540;2023-07-13T09:48:33;11.60;;;2.20;;
42200;SDS011;27869;51.442;7.540;2023-07-13T09:51:06;10.95;;;2.17;;
42200;SDS011;27869;51.442;7.540;2023-07-13T09:53:39;9.68;;;2.17;;
42200;SDS011;27869;51.442;7.540;2023-07-13T09:56:18;9.98;;;2.10;;
42200;SDS011;27869;51.442;7.540;2023-07-13T09:58:47;8.15;;;1.70;;
42200;SDS011;27869;51.442;7.540;2023-07-13T10:01:14;7.40;;;1.83;;
42200;SDS011;27869;51.442;7.540;2023-07-13T10:03:51;11.77;;;2.10;;
42200;SDS011;27869;51.442;7.540;2023-07-13T10:06:20;9.23;;;1.90;;
42200;SDS011;27869;51.442;7.540;2023-07-13T10:08:48;8.55;;;1.80;;
42200;SDS011;27869;51.442;7.540;2023-07-13T10:11:18;9.18;;;2.13;;
42200;SDS011;27869;51.442;7.540;2023-07-13T10:13:50;9.88;;;2.00;;
42200;SDS011;27869;51.442;7.540;2023-07-13T10:16:20;9.65;;;1.80;;
42200;SDS011;27869;51.442;7.540;2023-07-13T10:18:49;10.38;;;2.17;;
42200;SDS011;27869;51.442;7.540;2023-07-13T10:21:20;10.18;;;1.90;;
42200;SDS011;27869;51.442;7.540;2023-07-13T10:23:50;8.10;;;2.15;;
42200;SDS011;27869;51.442;7.540;2023-07-13T10:26:21;8.68;;;1.80;;
42200;SDS011;27869;51.442;7.540;2023-07-13T10:28:54;7.72;;;1.52;;
42200;SDS011;27869;51.442;7.540;2023-07-13T10:31:25;10.60;;;1.73;;
42200;SDS011;27869;51.442;7.540;2023-07-13T10:33:52;9.75;;;1.58;;
42200;SDS011;27869;51.442;7.540;2023-07-13T10:36:22;5.45;;;1.50;;
42200;SDS011;27869;51.442;7.540;2023-07-13T10:38:55;13.15;;;1.95;;
42200;SDS011;27869;51.442;7.540;2023-07-13T10:41:24;10.50;;;2.20;;
42200;SDS011;27869;51.442;7.540;2023-07-13T10:43:55;8.60;;;1.80;;
42200;SDS011;27869;51.442;7.540;2023-07-13T10:46:24;13.23;;;2.33;;
42200;SDS011;27869;51.442;7.540;2023-07-13T10:48:54;10.52;;;1.75;;
42200;SDS011;27869;51.442;7.540;2023-07-13T10:51:24;11.25;;;1.70;;
42200;SDS011;27869;51.442;7.540;2023-07-13T10:54:11;10.43;;;1.85;;
42200;SDS011;27869;51.442;7.540;2023-07-13T10:56:43;8.63;;;1.80;;
42200;SDS011;27869;51.442;7.540;2023-07-13T10:59:12;9.65;;;1.73;;
42200;SDS011;27869;51.442;7.540;2023-07-13T11:01:48;9.85;;;1.85;;
42200;SDS011;27869;51.442;7.540;2023-07-13T11:04:19;8.70;;;1.85;;
42200;SDS011;27869;51.442;7.540;2023-07-13T11:06:47;10.13;;;1.75;;
42200;SDS011;27869;51.442;7.540;2023-07-13T11:09:29;7.57;;;1.63;;
42200;SDS011;27869;51.442;7.540;2023-07-13T11:12:06;7.82;;;1.80;;
42200;SDS011;27869;51.442;7.540;2023-07-13T11:14:43;9.38;;;1.80;;
42200;SDS011;27869;51.442;7.540;2023-07-13T11:17:36;8.10;;;1.80;;
42200;SDS011;27869;51.442;7.540;2023-07-13T11:20:23;11.18;;;1.80;;
42200;SDS011;27869;51.442;7.540;2023-07-13T11:25:47;7.28;;;1.90;;
42200;SDS011;27869;51.442;7.540;2023-07-13T11:28:20;9.40;;;1.80;;
42200;SDS011;27869;51.442;7.540;2023-07-13T11:30:59;9.02;;;1.75;;
42200;SDS011;27869;51.442;7.540;2023-07-13T11:33:49;10.38;;;1.80;;
42200;SDS011;27869;51.442;7.540;2023-07-13T11:36:19;10.13;;;1.58;;
42200;SDS011;27869;51.442;7.540;2023-07-13T11:38:51;9.65;;;1.80;;
42200;SDS011;27869;51.442;7.540;2023-07-13T11:41:26;11.50;;;1.60;;
42200;SDS011;27869;51.442;7.540;2023-07-13T11:44:05;10.00;;;1.92;;
42200;SDS011;27869;51.442;7.540;2023-07-13T11:46:38;10.02;;;1.73;;
42200;SDS011;27869;51.442;7.540;2023-07-13T11:49:11;9.82;;;1.90;;
42200;SDS011;27869;51.442;7.540;2023-07-13T11:51:41;8.00;;;1.58;;
42200;SDS011;27869;51.442;7.540;2023-07-13T11:54:13;12.35;;;2.22;;
42200;SDS011;27869;51.442;7.540;2023-07-13T11:56:47;7.43;;;1.55;;
42200;SDS011;27869;51.442;7.540;2023-07-13T11:59:14;10.55;;;1.95;;
42200;SDS011;27869;51.442;7.540;2023-07-13T12:01:45;10.95;;;1.80;;
42200;SDS011;27869;51.442;7.540;2023-07-13T12:04:19;9.00;;;1.75;;
42200;SDS011;27869;51.442;7.540;2023-07-13T12:06:55;6.93;;;1.70;;
42200;SDS011;27869;51.442;7.540;2023-07-13T12:09:25;10.98;;;1.88;;
42200;SDS011;27869;51.442;7.540;2023-07-13T12:11:54;7.40;;;1.70;;
42200;SDS011;27869;51.442;7.540;2023-07-13T12:14:25;7.45;;;1.60;;
42200;SDS011;27869;51.442;7.540;2023-07-13T12:16:54;7.95;;;1.80;;
42200;SDS011;27869;51.442;7.540;2023-07-13T12:19:23;7.10;;;1.60;;
42200;SDS011;27869;51.442;7.540;2023-07-13T12:21:52;9.68;;;1.80;;
42200;SDS011;27869;51.442;7.540;2023-07-13T12:24:22;7.07;;;1.58;;
42200;SDS011;27869;51.442;7.540;2023-07-13T12:26:50;7.45;;;1.40;;
42200;SDS011;27869;51.442;7.540;2023-07-13T12:29:18;7.30;;;1.63;;
42200;SDS011;27869;51.442;7.540;2023-07-13T12:31:46;6.90;;;1.40;;
42200;SDS011;27869;51.442;7.540;2023-07-13T12:34:16;9.32;;;1.63;;
42200;SDS011;27869;51.442;7.540;2023-07-13T12:36:46;9.32;;;1.70;;
42200;SDS011;27869;51.442;7.540;2023-07-13T12:39:15;8.10;;;1.73;;
42200;SDS011;27869;51.442;7.540;2023-07-13T12:41:44;8.35;;;1.60;;
42200;SDS011;27869;51.442;7.540;2023-07-13T12:44:12;5.50;;;1.15;;
42200;SDS011;27869;51.442;7.540;2023-07-13T12:46:51;9.30;;;1.70;;
42200;SDS011;27869;51.442;7.540;2023-07-13T12:49:25;6.20;;;1.50;;
42200;SDS011;27869;51.442;7.540;2023-07-13T12:51:58;7.47;;;1.50;;
42200;SDS011;27869;51.442;7.540;2023-07-13T12:54:27;7.28;;;1.63;;
42200;SDS011;27869;51.442;7.540;2023-07-13T12:56:55;8.15;;;1.60;;
42200;SDS011;27869;51.442;7.540;2023-07-13T12:59:24;5.75;;;1.42;;
42200;SDS011;27869;51.442;7.540;2023-07-13T13:01:55;6.85;;;1.67;;
42200;SDS011;27869;51.442;7.540;2023-07-13T13:04:22;6.90;;;1.58;;
42200;SDS011;27869;51.442;7.540;2023-07-13T13:06:58;8.52;;;2.13;;
42200;SDS011;27869;51.442;7.540;2023-07-13T13:09:27;8.52;;;1.60;;
42200;SDS011;27869;51.442;7.540;2023-07-13T13:11:54;8.90;;;1.90;;
42200;SDS011;27869;51.442;7.540;2023-07-13T13:14:21;8.43;;;1.60;;
42200;SDS011;27869;51.442;7.540;2023-07-13T13:16:48;8.80;;;1.70;;
42200;SDS011;27869;51.442;7.540;2023-07-13T13:19:18;7.22;;;1.58;;
42200;SDS011;27869;51.442;7.540;2023-07-13T13:21:47;7.35;;;1.75;;
42200;SDS011;27869;51.442;7.540;2023-07-13T13:24:19;9.05;;;1.70;;
42200;SDS011;27869;51.442;7.540;2023-07-13T13:26:47;6.18;;;1.58;;
42200;SDS011;27869;51.442;7.540;2023-07-13T13:29:16;9.50;;;1.77;;
42200;SDS011;27869;51.442;7.540;2023-07-13T13:31:44;6.60;;;1.90;;
42200;SDS011;27869;51.442;7.540;2023-07-13T13:34:12;8.50;;;1.70;;
42200;SDS011;27869;51.442;7.540;2023-07-13T13:36:40;12.32;;;2.05;;
42200;SDS011;27869;51.442;7.540;2023-07-13T13:39:15;6.57;;;1.45;;
42200;SDS011;27869;51.442;7.540;2023-07-13T13:41:47;8.32;;;1.88;;
42200;SDS011;27869;51.442;7.540;2023-07-13T13:44:15;9.65;;;1.65;;
42200;SDS011;27869;51.442;7.540;2023-07-13T13:46:43;9.20;;;1.70;;
42200;SDS011;27869;51.442;7.540;2023-07-13T13:49:13;7.43;;;1.52;;
42200;SDS011;27869;51.442;7.540;2023-07-13T13:51:41;10.20;;;1.90;;
42200;SDS011;27869;51.442;7.540;2023-07-13T13:54:10;8.48;;;1.70;;
42200;SDS011;27869;51.442;7.540;2023-07-13T13:56:40;9.93;;;1.88;;
42200;SDS011;27869;51.442;7.540;2023-07-13T13:59:08;10.88;;;1.73;;
42200;SDS011;27869;51.442;7.540;2023-07-13T14:01:35;10.00;;;1.88;;
42200;SDS011;27869;51.442;7.540;2023-07-13T14:04:02;9.20;;;1.80;;
42200;SDS011;27869;51.442;7.540;2023-07-13T14:06:30;8.63;;;1.77;;
42200;SDS011;27869;51.442;7.540;2023-07-13T14:08:58;9.40;;;1.85;;
42200;SDS011;27869;51.442;7.540;2023-07-13T14:11:26;6.15;;;1.77;;
42200;SDS011;27869;51.442;7.540;2023-07-13T14:13:56;7.07;;;2.03;;
42200;SDS011;27869;51.442;7.540;2023-07-13T14:16:26;10.68;;;2.08;;
42200;SDS011;27869;51.442;7.540;2023-07-13T14:18:57;7.75;;;1.70;;
42200;SDS011;27869;51.442;7.540;2023-07-13T14:21:25;5.88;;;1.73;;
42200;SDS011;27869;51.442;7.540;2023-07-13T14:23:53;11.38;;;1.83;;
42200;SDS011;27869;51.442;7.540;2023-07-13T14:26:21;10.95;;;1.92;;
42200;SDS011;27869;51.442;7.540;2023-07-13T14:28:50;5.55;;;1.70;;
42200;SDS011;27869;51.442;7.540;2023-07-13T14:31:20;7.75;;;1.98;;
42200;SDS011;27869;51.442;7.540;2023-07-13T14:33:48;8.27;;;2.17;;
42200;SDS011;27869;51.442;7.540;2023-07-13T14:36:19;7.15;;;1.63;;
42200;SDS011;27869;51.442;7.540;2023-07-13T14:38:51;9.35;;;1.98;;
42200;SDS011;27869;51.442;7.540;2023-07-13T14:41:18;9.65;;;2.10;;
42200;SDS011;27869;51.442;7.540;2023-07-13T14:43:45;7.57;;;2.00;;
42200;SDS011;27869;51.442;7.540;2023-07-13T14:46:16;8.18;;;1.90;;
42200;SDS011;27869;51.442;7.540;2023-07-13T14:48:53;8.88;;;2.00;;
42200;SDS011;27869;51.442;7.540;2023-07-13T14:51:24;9.43;;;2.08;;
42200;SDS011;27869;51.442;7.540;2023-07-13T14:53:51;9.10;;;2.13;;
42200;SDS011;27869;51.442;7.540;2023-07-13T14:56:18;8.40;;;1.92;;
42200;SDS011;27869;51.442;7.540;2023-07-13T14:58:45;8.93;;;2.10;;
42200;SDS011;27869;51.442;7.540;2023-07-13T15:01:12;8.48;;;2.08;;
42200;SDS011;27869;51.442;7.540;2023-07-13T15:03:45;11.00;;;2.60;;